Wetterdaten: aktuell Sonntag, 12.07.2020 17:30
Datum Zeit Temp. Bro Temp. A. TWPR Temppool Temp. A. min Temp. A. max Feuchte Bro Feuchte A. FWPR Luftdruck Regen Wind Richtung Richtung Sonnenschein ET UV Solar Taupunkt Windchill Windben Empfang
12.07.2020 17:30 24,4 C 24,8 C 21,7 C 23,9 C 24,4 C 24,8 C 44 % 43 % 52 % 1024,3 hPa 0,0 l/m 3,2 km/h (1 Bft) NW 306 20 min 0,228 mm 1,6 UV-I 513 W/m 11,4 C 24,8 C 12,9 km/h (3 Bft) 97,01 %
12.07.2020 16:30 24,9 C 24,1 C 21,1 C 23,9 C 24,1 C 24,5 C 42 % 41 % 51 % 1024,4 hPa 0,0 l/m 5,5 km/h (1 Bft) W-NW 283 15 min 0,432 mm 1,1 UV-I 134 W/m 10,0 C 24,1 C 12,9 km/h (3 Bft) 99,57 %
12.07.2020 15:20 25,0 C 24,9 C 21,1 C 23,3 C 24,2 C 24,9 C 43 % 40 % 51 % 1024,6 hPa 0,0 l/m 5,3 km/h (1 Bft) W-NW 288 20 min 0,432 mm 4,8 UV-I 861 W/m 10,4 C 24,9 C 16,1 km/h (3 Bft) 97,90 %
12.07.2020 14:10 24,8 C 21,9 C 20,6 C 23,3 C 21,8 C 21,9 C 45 % 53 % 54 % 1025,0 hPa 0,0 l/m 3,8 km/h (1 Bft) W-NW 303 10 min 0,229 mm 6,7 UV-I 949 W/m 11,9 C 21,9 C 12,9 km/h (3 Bft) 100,00 %
12.07.2020 13:00 24,7 C 23,7 C 20,6 C 22,8 C 23,7 C 23,9 C 43 % 45 % 51 % 1025,1 hPa 0,0 l/m 5,1 km/h (1 Bft) NO 39 20 min 0,508 mm 3,8 UV-I 325 W/m 11,1 C 23,7 C 16,1 km/h (3 Bft) 99,57 %
12.07.2020 11:50 24,5 C 21,9 C 20,6 C 22,8 C 21,6 C 21,9 C 47 % 51 % 54 % 1025,3 hPa 0,0 l/m 5,0 km/h (1 Bft) N-NO 28 10 min 0,279 mm 2,5 UV-I 230 W/m 11,3 C 21,9 C 19,3 km/h (3 Bft) 90,79 %
12.07.2020 10:40 24,0 C 20,4 C 20,6 C 22,2 C 20,3 C 20,4 C 50 % 61 % 56 % 1025,4 hPa 0,0 l/m 4,8 km/h (1 Bft) N-NW 344 15 min 0,330 mm 2,8 UV-I 346 W/m 12,6 C 20,4 C 16,1 km/h (3 Bft) 99,59 %
12.07.2020 09:30 23,3 C 18,9 C 21,1 C 22,2 C 18,6 C 18,9 C 56 % 72 % 61 % 1025,7 hPa 0,0 l/m 7,1 km/h (2 Bft) W-NW 293 40 min 0,255 mm 2,4 UV-I 608 W/m 13,7 C 18,9 C 24,1 km/h (4 Bft) 97,87 %
12.07.2020 08:35 21,8 C 16,7 C 21,1 C 22,2 C 16,4 C 16,7 C 59 % 82 % 62 % 1025,6 hPa 0,0 l/m 8,0 km/h (2 Bft) NW 315 60 min 0,152 mm 1,8 UV-I 468 W/m 13,6 C 16,7 C 19,3 km/h (3 Bft) 93,86 %
12.07.2020 08:00 21,7 C 15,2 C 21,1 C 22,2 C 15,0 C 15,2 C 58 % 89 % 62 % 1025,5 hPa 0,0 l/m 8,0 km/h (2 Bft) NW 315 60 min 0,152 mm 1,1 UV-I 360 W/m 13,4 C 15,2 C 16,1 km/h (3 Bft) 95,61 %
12.07.2020 07:25 21,7 C 14,1 C 21,1 C 22,2 C 13,9 C 14,1 C 58 % 92 % 62 % 1025,2 hPa 0,0 l/m 3,2 km/h (1 Bft) W 270 25 min 0,025 mm 0,6 UV-I 278 W/m 12,8 C 14,1 C 8,0 km/h (2 Bft) 96,49 %
12.07.2020 06:50 21,7 C 13,2 C 21,1 C 22,2 C 13,1 C 13,2 C 58 % 93 % 62 % 1024,8 hPa 0,0 l/m 4,8 km/h (1 Bft) W 270 0 min 0,000 mm 0,0 UV-I 33 W/m 12,1 C 13,2 C 16,1 km/h (3 Bft) 92,11 %
12.07.2020 06:15 21,7 C 12,6 C 21,1 C 22,2 C 12,6 C 12,6 C 57 % 94 % 62 % 1024,5 hPa 0,0 l/m 4,8 km/h (1 Bft) NW 315 0 min 0,000 mm 0,0 UV-I 25 W/m 11,7 C 12,6 C 12,9 km/h (3 Bft) 79,82 %
12.07.2020 05:40 21,7 C 12,3 C 21,1 C 22,2 C 12,3 C 12,3 C 57 % 94 % 61 % 1024,1 hPa 0,0 l/m 3,2 km/h (1 Bft) W-NW 292 0 min 0,000 mm 0,0 UV-I 14 W/m 11,4 C 12,3 C 11,3 km/h (2 Bft) 98,25 %
12.07.2020 05:05 21,8 C 12,2 C 21,1 C 22,2 C 12,2 C 12,3 C 57 % 93 % 61 % 1023,9 hPa 0,0 l/m 3,2 km/h (1 Bft) NW 315 0 min 0,000 mm 0,0 UV-I 0 W/m 11,1 C 12,2 C 9,7 km/h (2 Bft) 97,37 %
12.07.2020 04:30 21,8 C 12,4 C 21,1 C 22,8 C 12,4 C 12,4 C 57 % 93 % 62 % 1023,8 hPa 0,2 l/m 1,6 km/h (1 Bft) NW 315 0 min 0,000 mm 0,0 UV-I 0 W/m 11,3 C 12,4 C 8,0 km/h (2 Bft) 93,86 %
12.07.2020 03:55 21,9 C 12,3 C 21,7 C 22,8 C 12,3 C 12,4 C 57 % 93 % 62 % 1023,7 hPa 0,0 l/m 3,2 km/h (1 Bft) NW 315 0 min 0,000 mm 0,0 UV-I 0 W/m 11,2 C 12,3 C 11,3 km/h (2 Bft) 98,25 %
12.07.2020 03:20 22,0 C 12,6 C 21,7 C 22,8 C 12,6 C 12,6 C 58 % 93 % 62 % 1024,0 hPa 0,0 l/m 0,0 km/h (0 Bft) N 0 0 min 0,000 mm 0,0 UV-I 0 W/m 11,5 C 12,6 C 0,0 km/h (0 Bft) 92,98 %
12.07.2020 02:45 22,1 C 12,9 C 21,7 C 22,8 C 12,9 C 13,0 C 58 % 93 % 63 % 1024,1 hPa 0,0 l/m 0,0 km/h (0 Bft) NW 315 0 min 0,000 mm 0,0 UV-I 0 W/m 11,8 C 12,9 C 3,2 km/h (1 Bft) 93,86 %
12.07.2020 02:10 22,2 C 13,1 C 21,7 C 23,3 C 13,1 C 13,1 C 58 % 93 % 62 % 1024,1 hPa 0,0 l/m 4,8 km/h (1 Bft) NW 315 0 min 0,000 mm 0,0 UV-I 0 W/m 12,0 C 13,1 C 16,1 km/h (3 Bft) 95,61 %
12.07.2020 01:35 22,2 C 12,9 C 21,7 C 23,3 C 12,8 C 12,9 C 57 % 92 % 62 % 1024,0 hPa 0,0 l/m 1,6 km/h (1 Bft) NW 315 0 min 0,000 mm 0,0 UV-I 0 W/m 11,6 C 12,9 C 8,0 km/h (2 Bft) 92,11 %
12.07.2020 01:00 22,4 C 12,9 C 21,7 C 23,3 C 12,9 C 13,0 C 58 % 92 % 62 % 1023,7 hPa 0,0 l/m 3,2 km/h (1 Bft) W 270 0 min 0,000 mm 0,0 UV-I 0 W/m 11,6 C 12,9 C 9,7 km/h (2 Bft) 96,49 %
12.07.2020 00:25 22,4 C 13,2 C 21,7 C 23,3 C 13,2 C 13,2 C 58 % 92 % 63 % 1023,9 hPa 0,0 l/m 1,6 km/h (1 Bft) NW 315 0 min 0,000 mm 0,0 UV-I 0 W/m 11,9 C 13,2 C 9,7 km/h (2 Bft) 95,61 %
12.07.2020 00:00 22,6 C 13,4 C 21,7 C 23,3 C 13,3 C 13,4 C 58 % 92 % 63 % 1023,8 hPa 0,0 l/m 3,2 km/h (1 Bft) W-NW 292 0 min 0,000 mm 0,0 UV-I 0 W/m 12,1 C 13,4 C 11,3 km/h (2 Bft) 92,11 %
_ Min-Zeit 05:30 05:00 10:00 05:05 05:00 05:10 15:30 15:20 15:00 00:45 - 02:25 - - - - - - 16:10 05:00 02:30 02:30
Minimum _ 21,7 C 12,2 C 20,6 C 22,2 C 12,2 C 12,2 C 42 % 40 % 49 % 1023,7 hPa - 0,0 km/h (0 Bft) - - - - - - 9,8 C 12,2 C 0,0 km/h (0 Bft) 76,32 %
_ Max-Zeit 15:20 15:30 00:00 16:10 15:30 15:30 08:35 05:40 00:00 08:50 04:00 14:40 - - 07:05 13:00 12:10 13:30 08:55 15:30 13:40 10:10
Maximum _ 25,0 C 25,4 C 21,7 C 23,9 C 24,9 C 25,4 C 59 % 94 % 63 % 1025,8 hPa 0,2 l/m 8,6 km/h
NW (2 Bft)
- - 5 min 0,508 mm 7,2 UV-I 1127 W/m 14,1 C 25,3 C 27,4 km/h
N-NW (4 Bft)
100,00 %
Durchschnitt _ 23,2 C 17,7 C 21,1 C 22,8 C 17,5 C 17,7 C 52 % 72 % 58 % 1024,7 hPa #0,2 l/m 4,3 km/h (1 Bft) NW - #4:10 h #3,251 mm 3,2 UV-I 436 W/m 11,8 C 17,7 C 13,5 km/h (3 Bft) 96,63 %